createdAt,value
2022-09-11T00:00:31.870Z,9.358619
2022-09-11T00:01:31.847Z,9.358584
2022-09-11T00:02:31.914Z,9.358573
2022-09-11T00:03:31.866Z,9.358608
2022-09-11T00:04:31.872Z,9.358604
2022-09-11T00:05:31.823Z,9.358603
2022-09-11T00:06:31.808Z,9.358577
2022-09-11T00:07:31.767Z,9.358558
2022-09-11T00:08:31.858Z,9.358557
2022-09-11T00:09:31.826Z,9.358595
2022-09-11T00:10:31.769Z,9.358615
2022-09-11T00:11:31.775Z,9.358610
2022-09-11T00:12:31.724Z,9.358657
2022-09-11T00:13:31.755Z,9.358596
2022-09-11T00:14:31.777Z,9.358541
2022-09-11T00:15:31.724Z,9.358567
2022-09-11T00:16:31.729Z,9.358571
2022-09-11T00:17:31.715Z,9.358617
2022-09-11T00:18:31.650Z,9.358605
2022-09-11T00:19:31.706Z,9.358655
2022-09-11T00:20:31.693Z,9.358687
2022-09-11T00:21:31.640Z,9.358669
2022-09-11T00:22:31.651Z,9.358625
2022-09-11T00:23:31.657Z,9.358612
2022-09-11T00:24:31.691Z,9.358638
2022-09-11T00:25:31.597Z,9.358633
2022-09-11T00:26:31.623Z,9.358626
2022-09-11T00:27:31.553Z,9.358644
2022-09-11T00:28:31.574Z,9.358660
2022-09-11T00:29:31.591Z,9.358620
2022-09-11T00:30:31.561Z,9.358672
2022-09-11T00:31:31.506Z,9.358681
2022-09-11T00:32:31.490Z,9.358650
2022-09-11T00:33:31.591Z,9.358581
2022-09-11T00:34:31.478Z,9.358541
2022-09-11T00:35:31.472Z,9.358557
2022-09-11T00:36:31.545Z,9.358615
2022-09-11T00:37:31.453Z,9.358679
2022-09-11T00:38:31.483Z,9.358674
2022-09-11T00:39:31.503Z,9.358658
2022-09-11T00:40:31.444Z,9.358631
2022-09-11T00:41:31.452Z,9.358541
2022-09-11T00:42:31.421Z,9.358521
2022-09-11T00:43:31.378Z,9.358572
2022-09-11T00:44:31.451Z,9.358613
2022-09-11T00:45:31.383Z,9.358588
2022-09-11T00:46:31.333Z,9.358555
2022-09-11T00:47:31.349Z,9.358582
2022-09-11T00:48:31.359Z,9.358614
2022-09-11T00:49:31.352Z,9.358571
2022-09-11T00:50:31.313Z,9.358563
2022-09-11T00:51:31.337Z,9.358548
2022-09-11T00:52:31.333Z,9.358548
2022-09-11T00:53:31.268Z,9.358593
2022-09-11T00:54:31.341Z,9.358596
2022-09-11T00:55:31.281Z,9.358577
2022-09-11T00:56:31.268Z,9.358587
2022-09-11T00:57:31.266Z,9.358522
2022-09-11T00:58:31.287Z,9.358543
2022-09-11T00:59:31.264Z,9.358554
2022-09-11T01:00:31.259Z,9.358529
2022-09-11T01:01:31.213Z,9.358519
2022-09-11T01:02:31.202Z,9.358542
2022-09-11T01:03:31.125Z,9.358514
2022-09-11T01:04:31.200Z,9.358536
2022-09-11T01:05:31.149Z,9.358587
2022-09-11T01:06:31.111Z,9.358541
2022-09-11T01:07:31.125Z,9.358500
2022-09-11T01:08:33.431Z,9.358468
2022-09-11T01:09:31.192Z,9.358485
2022-09-11T01:10:31.080Z,9.358449
2022-09-11T01:11:31.135Z,9.358503
2022-09-11T01:12:31.067Z,9.358478
2022-09-11T01:13:31.085Z,9.358510
2022-09-11T01:14:34.306Z,9.358544
2022-09-11T01:15:32.033Z,9.358565
2022-09-11T01:16:31.052Z,9.358578
2022-09-11T01:17:31.004Z,9.358564
2022-09-11T01:18:31.003Z,9.358578
2022-09-11T01:19:31.052Z,9.358566
2022-09-11T01:20:30.985Z,9.358494
2022-09-11T01:21:34.374Z,9.358521
2022-09-11T01:22:31.955Z,9.358566
2022-09-11T01:23:30.944Z,9.358548
2022-09-11T01:24:30.977Z,9.358553
2022-09-11T01:25:30.919Z,9.358669
2022-09-11T01:26:30.903Z,9.358654
2022-09-11T01:27:30.900Z,9.358682
2022-09-11T01:28:30.887Z,9.358650
2022-09-11T01:29:30.964Z,9.358540
2022-09-11T01:30:30.858Z,9.358567
2022-09-11T01:31:30.909Z,9.358594
2022-09-11T01:32:30.859Z,9.358566
2022-09-11T01:33:30.847Z,9.358547
2022-09-11T01:34:30.881Z,9.358584
2022-09-11T01:35:30.833Z,9.358623
2022-09-11T01:36:30.809Z,9.358622
2022-09-11T01:37:30.861Z,9.358625
2022-09-11T01:38:30.786Z,9.358584
2022-09-11T01:39:30.836Z,9.358554
2022-09-11T01:40:30.737Z,9.358552
2022-09-11T01:41:30.760Z,9.358690
2022-09-11T01:42:30.709Z,9.358685
2022-09-11T01:43:30.737Z,9.358624
2022-09-11T01:44:30.781Z,9.358631
2022-09-11T01:45:30.753Z,9.358673
2022-09-11T01:46:30.710Z,9.358611
2022-09-11T01:47:30.690Z,9.358614
2022-09-11T01:48:30.727Z,9.358581
2022-09-11T01:49:30.744Z,9.358560
2022-09-11T01:50:30.640Z,9.358575
2022-09-11T01:51:30.456Z,9.358588
2022-09-11T01:52:30.632Z,9.358564
2022-09-11T01:53:30.623Z,9.358538
2022-09-11T01:54:30.684Z,9.358516
2022-09-11T01:55:30.617Z,9.358518
2022-09-11T01:56:30.622Z,9.358498
2022-09-11T01:57:30.609Z,9.358525
2022-09-11T01:58:30.571Z,9.358550
2022-09-11T01:59:30.615Z,9.358474
2022-09-11T02:00:30.555Z,9.358601
2022-09-11T02:01:30.522Z,9.358630
2022-09-11T02:02:30.507Z,9.358625
2022-09-11T02:03:30.491Z,9.358620
2022-09-11T02:04:30.603Z,9.358568
2022-09-11T02:05:30.488Z,9.358525
2022-09-11T02:06:30.454Z,9.358525
2022-09-11T02:07:30.447Z,9.358533
2022-09-11T02:08:30.473Z,9.358515
2022-09-11T02:09:30.499Z,9.358543
2022-09-11T02:10:30.426Z,9.358552
2022-09-11T02:11:30.410Z,9.358548
2022-09-11T02:12:30.411Z,9.358615
2022-09-11T02:13:30.412Z,9.358514
2022-09-11T02:14:30.445Z,9.358436
2022-09-11T02:15:30.376Z,9.358496
2022-09-11T02:16:30.409Z,9.358551
2022-09-11T02:17:30.373Z,9.358608
2022-09-11T02:18:30.358Z,9.358572
2022-09-11T02:19:30.392Z,9.358523
2022-09-11T02:20:30.322Z,9.358489
2022-09-11T02:21:30.298Z,9.358519
2022-09-11T02:22:30.320Z,9.358644
2022-09-11T02:23:30.300Z,9.358532
2022-09-11T02:24:30.397Z,9.358546
2022-09-11T02:25:30.280Z,9.358573
2022-09-11T02:26:30.252Z,9.358574
2022-09-11T02:27:30.266Z,9.358574
2022-09-11T02:28:30.284Z,9.358491
2022-09-11T02:29:30.327Z,9.358458
2022-09-11T02:30:30.208Z,9.358512
2022-09-11T02:31:30.273Z,9.358541
2022-09-11T02:32:30.208Z,9.358581
2022-09-11T02:33:30.205Z,9.358594
2022-09-11T02:34:30.258Z,9.358568
2022-09-11T02:35:30.241Z,9.358582
2022-09-11T02:36:30.223Z,9.358495
2022-09-11T02:37:30.173Z,9.358464
2022-09-11T02:38:30.134Z,9.358489
2022-09-11T02:39:30.199Z,9.358528
2022-09-11T02:40:30.131Z,9.358531
2022-09-11T02:41:30.104Z,9.358567
2022-09-11T02:42:30.144Z,9.358585
2022-09-11T02:43:30.102Z,9.358550
2022-09-11T02:44:30.110Z,9.358565
2022-09-11T02:45:30.098Z,9.358611
2022-09-11T02:46:30.060Z,9.358585
2022-09-11T02:47:30.041Z,9.358615
2022-09-11T02:48:30.471Z,9.358627
2022-09-11T02:49:30.056Z,9.358558
2022-09-11T02:50:30.025Z,9.358528
2022-09-11T02:51:30.041Z,9.358533
2022-09-11T02:52:30.001Z,9.358559
2022-09-11T02:53:29.975Z,9.358521
2022-09-11T02:54:29.969Z,9.358530
2022-09-11T02:55:29.950Z,9.358542
2022-09-11T02:56:29.954Z,9.358567
2022-09-11T02:57:29.918Z,9.358572
2022-09-11T02:58:29.922Z,9.358455
2022-09-11T02:59:29.999Z,9.358382
2022-09-11T03:00:29.908Z,9.358425
2022-09-11T03:01:29.879Z,9.358485
2022-09-11T03:02:29.885Z,9.358530
2022-09-11T03:03:29.860Z,9.358537
2022-09-11T03:04:29.909Z,9.358546
2022-09-11T03:05:29.836Z,9.358500
2022-09-11T03:06:29.796Z,9.358558
2022-09-11T03:07:29.831Z,9.358555
2022-09-11T03:08:29.816Z,9.358569
2022-09-11T03:09:29.837Z,9.358541
2022-09-11T03:10:29.822Z,9.358498
2022-09-11T03:11:29.784Z,9.358477
2022-09-11T03:12:29.754Z,9.358418
2022-09-11T03:13:29.776Z,9.358533
2022-09-11T03:14:29.784Z,9.358598
2022-09-11T03:15:29.728Z,9.358604
2022-09-11T03:16:29.770Z,9.358593
2022-09-11T03:17:29.759Z,9.358550
2022-09-11T03:18:29.704Z,9.358559
2022-09-11T03:19:29.732Z,9.358530
2022-09-11T03:20:29.693Z,9.358493
2022-09-11T03:21:29.667Z,9.358518
2022-09-11T03:22:29.680Z,9.358551
2022-09-11T03:23:29.639Z,9.358547
2022-09-11T03:24:29.735Z,9.358566
2022-09-11T03:25:29.618Z,9.358515
2022-09-11T03:26:29.623Z,9.358542
2022-09-11T03:27:29.607Z,9.358567
2022-09-11T03:28:29.609Z,9.358536
2022-09-11T03:29:29.904Z,9.358612
2022-09-11T03:30:29.567Z,9.358612
2022-09-11T03:31:29.633Z,9.358591
2022-09-11T03:32:29.570Z,9.358531
2022-09-11T03:33:29.531Z,9.358499
2022-09-11T03:34:29.602Z,9.358499
2022-09-11T03:35:29.555Z,9.358481
2022-09-11T03:36:29.518Z,9.358507
2022-09-11T03:37:29.539Z,9.358516
2022-09-11T03:38:30.486Z,9.358564
2022-09-11T03:39:29.501Z,9.358545
2022-09-11T03:40:29.469Z,9.358482
2022-09-11T03:41:29.460Z,9.358504
2022-09-11T03:42:29.431Z,9.358515
2022-09-11T03:43:29.397Z,9.358449
2022-09-11T03:44:29.548Z,9.358471
2022-09-11T03:45:29.421Z,9.358577
2022-09-11T03:46:29.400Z,9.358511
2022-09-11T03:47:29.483Z,9.358480
2022-09-11T03:48:29.381Z,9.358465
2022-09-11T03:49:29.428Z,9.358437
2022-09-11T03:50:29.369Z,9.358498
2022-09-11T03:51:29.353Z,9.358512
2022-09-11T03:52:29.330Z,9.358459
2022-09-11T03:53:29.359Z,9.358475
2022-09-11T03:54:29.389Z,9.358442
2022-09-11T03:55:29.293Z,9.358477
2022-09-11T03:56:29.300Z,9.358526
2022-09-11T03:57:29.310Z,9.358482
2022-09-11T03:58:29.270Z,9.358468
2022-09-11T03:59:29.312Z,9.358492
2022-09-11T04:00:29.241Z,9.358534
2022-09-11T04:01:29.236Z,9.358558
2022-09-11T04:02:29.221Z,9.358573
2022-09-11T04:03:29.209Z,9.358552
2022-09-11T04:04:29.306Z,9.358516
2022-09-11T04:05:29.206Z,9.358548
2022-09-11T04:06:29.170Z,9.358590
2022-09-11T04:07:29.147Z,9.358601
2022-09-11T04:08:29.165Z,9.358621
2022-09-11T04:09:29.189Z,9.358594
2022-09-11T04:10:29.178Z,9.358565
2022-09-11T04:11:29.127Z,9.358504
2022-09-11T04:12:29.134Z,9.358475
2022-09-11T04:13:29.134Z,9.358521
2022-09-11T04:14:29.147Z,9.358571
2022-09-11T04:15:29.069Z,9.358571
2022-09-11T04:16:29.149Z,9.358561
2022-09-11T04:17:29.047Z,9.358588
2022-09-11T04:18:29.113Z,9.358575
2022-09-11T04:19:29.114Z,9.358619
2022-09-11T04:20:29.045Z,9.358604
2022-09-11T04:21:29.051Z,9.358517
2022-09-11T04:22:28.995Z,9.358487
2022-09-11T04:23:28.992Z,9.358469
2022-09-11T04:24:29.022Z,9.358516
2022-09-11T04:25:29.017Z,9.358483
2022-09-11T04:26:28.977Z,9.358499
2022-09-11T04:27:28.951Z,9.358532
2022-09-11T04:28:28.979Z,9.358490
2022-09-11T04:29:28.975Z,9.358507
2022-09-11T04:30:28.896Z,9.358522
2022-09-11T04:31:28.955Z,9.358508
2022-09-11T04:32:28.894Z,9.358469
2022-09-11T04:33:28.887Z,9.358500
2022-09-11T04:34:28.975Z,9.358524
2022-09-11T04:35:28.895Z,9.358552
2022-09-11T04:36:28.862Z,9.358583
2022-09-11T04:37:28.842Z,9.358548
2022-09-11T04:38:28.817Z,9.358520
2022-09-11T04:39:28.890Z,9.358505
2022-09-11T04:40:28.832Z,9.358531
2022-09-11T04:41:28.801Z,9.358497
2022-09-11T04:42:28.772Z,9.358452
2022-09-11T04:43:28.781Z,9.358415
2022-09-11T04:44:28.844Z,9.358417
2022-09-11T04:45:28.785Z,9.358383
2022-09-11T04:46:28.770Z,9.358461
2022-09-11T04:47:28.736Z,9.358501
2022-09-11T04:48:28.704Z,9.358466
2022-09-11T04:49:28.803Z,9.358487
2022-09-11T04:50:28.733Z,9.358483
2022-09-11T04:51:29.262Z,9.358431
2022-09-11T04:52:29.677Z,9.358487
2022-09-11T04:53:28.652Z,9.358506
2022-09-11T04:54:28.671Z,9.358486
2022-09-11T04:55:28.671Z,9.358521
2022-09-11T04:56:28.619Z,9.358556
2022-09-11T04:57:28.634Z,9.358524
2022-09-11T04:58:28.612Z,9.358477
2022-09-11T04:59:28.638Z,9.358440
2022-09-11T05:00:28.627Z,9.358481
2022-09-11T05:01:28.601Z,9.358458
2022-09-11T05:02:28.598Z,9.358387
2022-09-11T05:03:28.576Z,9.358399
2022-09-11T05:04:28.624Z,9.358503
2022-09-11T05:05:28.575Z,9.358460
2022-09-11T05:06:28.544Z,9.358464
2022-09-11T05:07:28.522Z,9.358479
2022-09-11T05:08:28.516Z,9.358490
2022-09-11T05:09:28.586Z,9.358462
2022-09-11T05:10:28.480Z,9.358533
2022-09-11T05:11:28.478Z,9.358516
2022-09-11T05:12:28.461Z,9.358521
2022-09-11T05:13:29.736Z,9.358535
2022-09-11T05:14:28.449Z,9.358525
2022-09-11T05:15:28.439Z,9.358459
2022-09-11T05:16:28.433Z,9.358538
2022-09-11T05:17:28.391Z,9.358534
2022-09-11T05:18:28.439Z,9.358457
2022-09-11T05:19:28.363Z,9.358493
2022-09-11T05:20:28.433Z,9.358562
2022-09-11T05:21:28.372Z,9.358595
2022-09-11T05:22:28.351Z,9.358477
2022-09-11T05:23:28.407Z,9.358506
2022-09-11T05:24:28.334Z,9.358563
2022-09-11T05:25:29.311Z,9.358619
2022-09-11T05:26:28.307Z,9.358653
2022-09-11T05:27:28.319Z,9.358626
2022-09-11T05:28:28.353Z,9.358551
2022-09-11T05:29:32.028Z,9.358509
2022-09-11T05:30:29.289Z,9.358530
2022-09-11T05:31:28.271Z,9.358520
2022-09-11T05:32:28.249Z,9.358506
2022-09-11T05:33:28.316Z,9.358523
2022-09-11T05:34:28.278Z,9.358553
2022-09-11T05:35:32.093Z,9.358541
2022-09-11T05:36:29.232Z,9.358464
2022-09-11T05:37:28.229Z,9.358478
2022-09-11T05:38:32.965Z,9.358520
2022-09-11T05:39:28.186Z,9.358436
2022-09-11T05:40:28.201Z,9.358423
2022-09-11T05:41:28.229Z,9.358467
2022-09-11T05:42:28.135Z,9.358496
2022-09-11T05:43:28.183Z,9.358507
2022-09-11T05:44:28.216Z,9.358526
2022-09-11T05:45:28.195Z,9.358529
2022-09-11T05:46:28.111Z,9.358461
2022-09-11T05:47:28.067Z,9.358494
2022-09-11T05:48:28.158Z,9.358519
2022-09-11T05:49:28.115Z,9.358541
2022-09-11T05:50:28.080Z,9.358567
2022-09-11T05:51:28.078Z,9.358538
2022-09-11T05:52:28.061Z,9.358481
2022-09-11T05:53:28.075Z,9.358512
2022-09-11T05:54:28.095Z,9.358518
2022-09-11T05:55:28.066Z,9.358523
2022-09-11T05:56:27.997Z,9.358528
2022-09-11T05:57:28.028Z,9.358557
2022-09-11T05:58:28.052Z,9.358571
2022-09-11T05:59:27.986Z,9.358567
2022-09-11T06:00:28.012Z,9.358581
2022-09-11T06:01:28.038Z,9.358625
2022-09-11T06:02:28.032Z,9.358594
2022-09-11T06:03:28.060Z,9.358562
2022-09-11T06:04:27.949Z,9.358532
2022-09-11T06:05:27.909Z,9.358570
2022-09-11T06:06:27.948Z,9.358577
2022-09-11T06:07:27.889Z,9.358603
2022-09-11T06:08:27.878Z,9.358574
2022-09-11T06:09:29.586Z,9.358562
2022-09-11T06:10:27.888Z,9.358519
2022-09-11T06:11:27.857Z,9.358511
2022-09-11T06:12:27.897Z,9.358493
2022-09-11T06:13:27.824Z,9.358550
2022-09-11T06:14:27.836Z,9.358550
2022-09-11T06:15:45.752Z,9.358534
2022-09-11T06:16:29.843Z,9.358525
2022-09-11T06:17:27.795Z,9.358562
2022-09-11T06:18:27.792Z,9.358524
2022-09-11T06:19:27.861Z,9.358537
2022-09-11T06:20:27.752Z,9.358540
2022-09-11T06:21:27.747Z,9.358615
2022-09-11T06:22:27.748Z,9.358712
2022-09-11T06:23:27.707Z,9.358670
2022-09-11T06:24:27.748Z,9.358620
2022-09-11T06:25:27.698Z,9.358649
2022-09-11T06:26:27.721Z,9.358524
2022-09-11T06:27:27.693Z,9.358511
2022-09-11T06:28:27.673Z,9.358500
2022-09-11T06:29:27.672Z,9.358534
2022-09-11T06:30:27.703Z,9.358521
2022-09-11T06:31:27.652Z,9.358518
2022-09-11T06:32:27.624Z,9.358478
2022-09-11T06:33:27.684Z,9.358459
2022-09-11T06:34:27.690Z,9.358473
2022-09-11T06:35:27.607Z,9.358501
2022-09-11T06:36:27.565Z,9.358527
2022-09-11T06:37:27.571Z,9.358562
2022-09-11T06:38:27.570Z,9.358531
2022-09-11T06:39:27.630Z,9.358511
2022-09-11T06:40:27.558Z,9.358553
2022-09-11T06:41:27.526Z,9.358512
2022-09-11T06:42:27.515Z,9.358513
2022-09-11T06:43:27.544Z,9.358532
2022-09-11T06:44:27.655Z,9.358498
2022-09-11T06:45:27.454Z,9.358507
2022-09-11T06:46:27.463Z,9.358512
2022-09-11T06:47:27.459Z,9.358520
2022-09-11T06:48:27.453Z,9.358558
2022-09-11T06:49:27.517Z,9.358521
2022-09-11T06:50:27.402Z,9.358502
2022-09-11T06:51:27.433Z,9.358480
2022-09-11T06:52:27.282Z,9.358499
2022-09-11T06:53:27.393Z,9.358526
2022-09-11T06:54:27.434Z,9.358529
2022-09-11T06:55:27.371Z,9.358537
2022-09-11T06:56:27.358Z,9.358523
2022-09-11T06:57:27.453Z,9.358506
2022-09-11T06:58:27.347Z,9.358544
2022-09-11T06:59:27.414Z,9.358505
2022-09-11T07:00:27.305Z,9.358443
2022-09-11T07:01:27.350Z,9.358476
2022-09-11T07:02:27.290Z,9.358485
2022-09-11T07:03:27.322Z,9.358479
2022-09-11T07:04:27.369Z,9.358454
2022-09-11T07:05:27.273Z,9.358463
2022-09-11T07:06:27.266Z,9.358536
2022-09-11T07:07:27.211Z,9.358574
2022-09-11T07:08:27.217Z,9.358539
2022-09-11T07:09:27.301Z,9.358508
2022-09-11T07:10:27.226Z,9.358536
2022-09-11T07:11:27.211Z,9.358500
2022-09-11T07:12:27.214Z,9.358520
2022-09-11T07:13:27.167Z,9.358464
2022-09-11T07:14:27.228Z,9.358541
2022-09-11T07:15:27.046Z,9.358579
2022-09-11T07:16:27.205Z,9.358636
2022-09-11T07:17:27.147Z,9.358601
2022-09-11T07:18:27.178Z,9.358549
2022-09-11T07:19:27.203Z,9.358511
2022-09-11T07:20:27.127Z,9.358497
2022-09-11T07:21:27.101Z,9.358564
2022-09-11T07:22:27.100Z,9.358562
2022-09-11T07:23:27.111Z,9.358545
2022-09-11T07:24:27.132Z,9.358478
2022-09-11T07:25:27.080Z,9.358476
2022-09-11T07:26:28.099Z,9.358542
2022-09-11T07:27:27.054Z,9.358451
2022-09-11T07:28:27.033Z,9.358444
2022-09-11T07:29:27.070Z,9.358451
2022-09-11T07:30:27.215Z,9.358517
2022-09-11T07:31:27.002Z,9.358573
2022-09-11T07:32:26.979Z,9.358494
2022-09-11T07:33:26.993Z,9.358491
2022-09-11T07:34:27.031Z,9.358470
2022-09-11T07:35:26.956Z,9.358542
2022-09-11T07:36:26.915Z,9.358546
2022-09-11T07:37:26.956Z,9.358554
2022-09-11T07:38:26.950Z,9.358515
2022-09-11T07:39:26.977Z,9.358461
2022-09-11T07:40:26.896Z,9.358471
2022-09-11T07:41:26.876Z,9.358552
2022-09-11T07:42:26.915Z,9.358465
2022-09-11T07:43:26.866Z,9.358551
2022-09-11T07:44:26.881Z,9.358542
2022-09-11T07:45:26.838Z,9.358463
2022-09-11T07:46:26.873Z,9.358505
2022-09-11T07:47:26.842Z,9.358468
2022-09-11T07:48:26.853Z,9.358392
2022-09-11T07:49:26.928Z,9.358418
2022-09-11T07:50:26.799Z,9.358425
2022-09-11T07:51:26.794Z,9.358435
2022-09-11T07:52:26.780Z,9.358421
2022-09-11T07:53:26.777Z,9.358397
2022-09-11T07:54:26.811Z,9.358440
2022-09-11T07:55:26.751Z,9.358466
2022-09-11T07:56:26.734Z,9.358427
2022-09-11T07:57:26.728Z,9.358383
2022-09-11T07:58:26.733Z,9.358406
2022-09-11T07:59:26.735Z,9.358427
2022-09-11T08:00:26.681Z,9.358452
2022-09-11T08:01:26.762Z,9.358464
2022-09-11T08:02:26.721Z,9.358504
2022-09-11T08:03:26.663Z,9.358391
2022-09-11T08:04:26.703Z,9.358412
2022-09-11T08:05:26.644Z,9.358467
2022-09-11T08:06:26.671Z,9.358407
2022-09-11T08:07:26.636Z,9.358550
2022-09-11T08:08:26.610Z,9.358574
2022-09-11T08:09:26.657Z,9.358563
2022-09-11T08:10:28.172Z,9.358530
2022-09-11T08:11:27.597Z,9.358533
2022-09-11T08:12:26.556Z,9.358499
2022-09-11T08:13:26.560Z,9.358503
2022-09-11T08:14:28.462Z,9.358482
2022-09-11T08:15:26.516Z,9.358456
2022-09-11T08:16:26.585Z,9.358444
2022-09-11T08:17:26.508Z,9.358443
2022-09-11T08:18:26.514Z,9.358537
2022-09-11T08:19:26.580Z,9.358536
2022-09-11T08:20:26.499Z,9.358503
2022-09-11T08:21:26.466Z,9.358502
2022-09-11T08:22:26.508Z,9.358530
2022-09-11T08:23:26.473Z,9.358505
2022-09-11T08:24:26.746Z,9.358493
2022-09-11T08:25:26.421Z,9.358452
2022-09-11T08:26:26.429Z,9.358467
2022-09-11T08:27:26.422Z,9.358471
2022-09-11T08:28:26.426Z,9.358464
2022-09-11T08:29:26.444Z,9.358446
2022-09-11T08:30:26.395Z,9.358440
2022-09-11T08:31:26.512Z,9.358557
2022-09-11T08:32:26.374Z,9.358556
2022-09-11T08:33:26.366Z,9.358609
2022-09-11T08:34:26.428Z,9.358613
2022-09-11T08:35:26.354Z,9.358612
2022-09-11T08:36:26.320Z,9.358576
2022-09-11T08:37:26.326Z,9.358506
2022-09-11T08:38:26.301Z,9.358451
2022-09-11T08:39:26.335Z,9.358494
2022-09-11T08:40:26.315Z,9.358514
2022-09-11T08:41:26.327Z,9.358523
2022-09-11T08:42:26.304Z,9.358500
2022-09-11T08:43:26.276Z,9.358528
2022-09-11T08:44:26.268Z,9.358529
2022-09-11T08:45:26.338Z,9.358531
2022-09-11T08:46:26.214Z,9.358481
2022-09-11T08:47:26.209Z,9.358495
2022-09-11T08:48:26.184Z,9.358467
2022-09-11T08:49:26.258Z,9.358484
2022-09-11T08:50:26.182Z,9.358530
2022-09-11T08:51:26.167Z,9.358568
2022-09-11T08:52:26.149Z,9.358529
2022-09-11T08:53:26.237Z,9.358512
2022-09-11T08:54:26.186Z,9.358505
2022-09-11T08:55:26.146Z,9.358459
2022-09-11T08:56:26.108Z,9.358479
2022-09-11T08:57:26.090Z,9.358537
2022-09-11T08:58:26.072Z,9.358545
2022-09-11T08:59:26.212Z,9.358592
2022-09-11T09:00:26.064Z,9.358603
2022-09-11T09:01:26.195Z,9.358556
2022-09-11T09:02:26.082Z,9.358484
2022-09-11T09:03:26.033Z,9.358470
2022-09-11T09:04:26.173Z,9.358546
2022-09-11T09:05:26.107Z,9.358555
2022-09-11T09:06:26.008Z,9.358529
2022-09-11T09:07:26.003Z,9.358494
2022-09-11T09:08:25.966Z,9.358564
2022-09-11T09:09:25.983Z,9.358546
2022-09-11T09:10:25.950Z,9.358481
2022-09-11T09:11:26.073Z,9.358544
2022-09-11T09:12:25.956Z,9.358516
2022-09-11T09:13:25.918Z,9.358518
2022-09-11T09:14:25.941Z,9.358504
2022-09-11T09:15:29.303Z,9.358517
2022-09-11T09:16:26.869Z,9.358593
2022-09-11T09:17:25.953Z,9.358597
2022-09-11T09:18:25.870Z,9.358521
2022-09-11T09:19:25.906Z,9.358524
2022-09-11T09:20:25.949Z,9.358562
2022-09-11T09:21:25.843Z,9.358669
2022-09-11T09:22:25.829Z,9.358695
2022-09-11T09:23:25.820Z,9.358538
2022-09-11T09:24:25.954Z,9.358548
2022-09-11T09:25:25.857Z,9.358581
2022-09-11T09:26:25.805Z,9.358571
2022-09-11T09:27:25.773Z,9.358532
2022-09-11T09:28:25.806Z,9.358478
2022-09-11T09:29:25.905Z,9.358490
2022-09-11T09:30:25.719Z,9.358524
2022-09-11T09:31:25.781Z,9.358571
2022-09-11T09:32:25.717Z,9.358601
2022-09-11T09:33:25.816Z,9.358622
2022-09-11T09:34:25.852Z,9.358554
2022-09-11T09:35:25.693Z,9.358557
2022-09-11T09:36:25.715Z,9.358564
2022-09-11T09:37:25.685Z,9.358594
2022-09-11T09:38:27.140Z,9.358541
2022-09-11T09:39:26.686Z,9.358523
2022-09-11T09:40:25.681Z,9.358646
2022-09-11T09:41:25.598Z,9.358628
2022-09-11T09:42:25.608Z,9.358580
2022-09-11T09:43:25.640Z,9.358603
2022-09-11T09:44:25.615Z,9.358597
2022-09-11T09:45:25.565Z,9.358595
2022-09-11T09:46:25.568Z,9.358573
2022-09-11T09:47:25.577Z,9.358583
2022-09-11T09:48:25.663Z,9.358592
2022-09-11T09:49:25.607Z,9.358624
2022-09-11T09:50:25.546Z,9.358659
2022-09-11T09:51:25.795Z,9.358653
2022-09-11T09:52:25.526Z,9.358628
2022-09-11T09:53:25.525Z,9.358545
2022-09-11T09:54:25.538Z,9.358573
2022-09-11T09:55:25.474Z,9.358584
2022-09-11T09:56:25.564Z,9.358643
2022-09-11T09:57:25.462Z,9.358603
2022-09-11T09:58:25.462Z,9.358582
2022-09-11T09:59:25.495Z,9.358561
2022-09-11T10:00:25.450Z,9.358549
2022-09-11T10:01:25.454Z,9.358559
2022-09-11T10:02:25.484Z,9.358581
2022-09-11T10:03:25.408Z,9.358636
2022-09-11T10:04:25.504Z,9.358612
2022-09-11T10:05:25.775Z,9.358565
2022-09-11T10:06:25.396Z,9.358546
2022-09-11T10:07:25.341Z,9.358597
2022-09-11T10:08:25.398Z,9.358643
2022-09-11T10:09:25.444Z,9.358601
2022-09-11T10:10:25.332Z,9.358565
2022-09-11T10:11:25.288Z,9.358568
2022-09-11T10:12:25.319Z,9.358590
2022-09-11T10:13:25.436Z,9.358567
2022-09-11T10:14:49.700Z,9.358544
2022-09-11T10:15:27.447Z,9.358585
2022-09-11T10:16:25.262Z,9.358628
2022-09-11T10:17:25.269Z,9.358643
2022-09-11T10:18:25.271Z,9.358647
2022-09-11T10:19:25.340Z,9.358636
2022-09-11T10:20:25.286Z,9.358594
2022-09-11T10:21:25.224Z,9.358563
2022-09-11T10:22:25.192Z,9.358529
2022-09-11T10:23:25.206Z,9.358580
2022-09-11T10:24:25.170Z,9.358592
2022-09-11T10:25:25.194Z,9.358613
2022-09-11T10:26:25.166Z,9.358552
2022-09-11T10:27:28.448Z,9.358520
2022-09-11T10:28:26.234Z,9.358520
2022-09-11T10:29:25.134Z,9.358494
2022-09-11T10:30:25.280Z,9.358538
2022-09-11T10:31:25.093Z,9.358596
2022-09-11T10:32:25.094Z,9.358569
2022-09-11T10:33:25.094Z,9.358576
2022-09-11T10:34:25.069Z,9.358580
2022-09-11T10:35:25.111Z,9.358504
2022-09-11T10:36:25.023Z,9.358435
2022-09-11T10:37:25.025Z,9.358438
2022-09-11T10:38:25.087Z,9.358505
2022-09-11T10:39:25.033Z,9.358512
2022-09-11T10:40:25.068Z,9.358460
2022-09-11T10:41:25.018Z,9.358448
2022-09-11T10:42:24.986Z,9.358486
2022-09-11T10:43:24.996Z,9.358539
2022-09-11T10:44:25.014Z,9.358541
2022-09-11T10:45:24.975Z,9.358567
2022-09-11T10:46:24.959Z,9.358616
2022-09-11T10:47:25.056Z,9.358566
2022-09-11T10:48:24.922Z,9.358565
2022-09-11T10:49:24.929Z,9.358560
2022-09-11T10:50:24.951Z,9.358531
2022-09-11T10:51:24.921Z,9.358554
2022-09-11T10:52:24.872Z,9.358526
2022-09-11T10:53:24.834Z,9.358540
2022-09-11T10:54:24.956Z,9.358553
2022-09-11T10:55:25.047Z,9.358564
2022-09-11T10:56:24.821Z,9.358582
2022-09-11T10:57:24.854Z,9.358541
2022-09-11T10:58:24.794Z,9.358563
2022-09-11T10:59:24.809Z,9.358554
2022-09-11T11:00:24.808Z,9.358537
2022-09-11T11:01:24.879Z,9.358517
2022-09-11T11:02:24.816Z,9.358483
2022-09-11T11:03:24.753Z,9.358431
2022-09-11T11:04:24.808Z,9.358450
2022-09-11T11:05:24.756Z,9.358461
2022-09-11T11:06:24.760Z,9.358486
2022-09-11T11:07:24.698Z,9.358501
2022-09-11T11:08:24.707Z,9.358521
2022-09-11T11:09:28.939Z,9.358480
2022-09-11T11:10:26.809Z,9.358486
2022-09-11T11:11:24.673Z,9.358519
2022-09-11T11:12:24.627Z,9.358521
2022-09-11T11:13:24.626Z,9.358525
2022-09-11T11:14:24.626Z,9.358497
2022-09-11T11:15:28.228Z,9.358506
2022-09-11T11:16:26.646Z,9.358525
2022-09-11T11:17:24.686Z,9.358582
2022-09-11T11:18:24.577Z,9.358593
2022-09-11T11:19:24.600Z,9.358567
2022-09-11T11:20:24.627Z,9.358568
2022-09-11T11:21:25.575Z,9.358567
2022-09-11T11:22:24.576Z,9.358601
2022-09-11T11:23:24.713Z,9.358599
2022-09-11T11:24:24.547Z,9.358514
2022-09-11T11:25:24.573Z,9.358498
2022-09-11T11:26:24.562Z,9.358526
2022-09-11T11:27:24.494Z,9.358505
2022-09-11T11:28:24.491Z,9.358508
2022-09-11T11:29:24.475Z,9.358557
2022-09-11T11:30:24.495Z,9.358552
2022-09-11T11:31:24.677Z,9.358468
2022-09-11T11:32:24.446Z,9.358496
2022-09-11T11:33:24.444Z,9.358574
2022-09-11T11:34:24.434Z,9.358551
2022-09-11T11:35:24.535Z,9.358533
2022-09-11T11:36:24.472Z,9.358574
2022-09-11T11:37:24.389Z,9.358556
2022-09-11T11:38:24.482Z,9.358561
2022-09-11T11:39:24.371Z,9.358527
2022-09-11T11:40:24.395Z,9.358522
2022-09-11T11:41:24.442Z,9.358500
2022-09-11T11:42:24.330Z,9.358500
2022-09-11T11:43:24.332Z,9.358525
2022-09-11T11:44:24.296Z,9.358503